Monday, December 18, 2017, 5:08 PM EST

KPHF, Williamsburg International Airport

Location: Newport News, VA, United States Lat: 37.133
Local Time: 5:08 PM EST (22:08 GMT) Lon: -76.5
Time Zone: US/Eastern Elev: 42 ft

Show me the last for .
Show Decoded

2017-12-18 16:54 METAR KPHF 182154Z 21003KT 10SM CLR 12/04 A3003 RMK AO2 SLP168 T01220044 =
2017-12-18 15:54 METAR KPHF 182054Z 21004KT 10SM CLR 14/05 A3002 RMK AO2 SLP166 T01440050 56019 =
2017-12-18 14:54 METAR KPHF 181954Z 21006KT 10SM CLR 14/04 A3003 RMK AO2 SLP168 T01440039 =
2017-12-18 13:54 METAR KPHF 181854Z 29005KT 10SM CLR 14/03 A3005 RMK AO2 SLP174 T01440033 =
2017-12-18 12:54 METAR KPHF 181754Z VRB06KT 10SM CLR 14/03 A3008 RMK AO2 SLP185 T01390028 10139
                 20039 58025 =
2017-12-18 11:54 METAR KPHF 181654Z VRB04KT 10SM CLR 12/02 A3011 RMK AO2 SLP195 T01220022 =
2017-12-18 10:54 METAR KPHF 181554Z 29006KT 10SM CLR 11/02 A3014 RMK AO2 SLP206 T01060022 =
2017-12-18 09:54 METAR KPHF 181454Z 30007KT 10SM CLR 09/03 A3015 RMK AO2 SLP209 T00940028 52000 =
2017-12-18 08:54 METAR KPHF 181354Z 26007KT 10SM CLR 07/03 A3015 RMK AO2 SLP210 T00720033 =
2017-12-18 07:54 METAR KPHF 181254Z 24006KT 8SM CLR 04/02 A3015 RMK AO2 SLP210 T00440022 =
2017-12-18 06:54 METAR KPHF 181154Z 23004KT 10SM CLR 04/02 A3015 RMK AO2 SLP210 T00440022 10078
                 20033 53005 =
2017-12-18 05:54 METAR KPHF 181054Z 25004KT 10SM CLR 06/02 A3015 RMK AO2 SLP208 T00560022 =
2017-12-18 04:54 METAR KPHF 180954Z AUTO 23006KT 10SM CLR 05/02 A3014 RMK AO2 SLP205 T00500022 =
2017-12-18 03:54 METAR KPHF 180854Z AUTO 23006KT 10SM OVC070 07/03 A3014 RMK AO2 SLP204 T00670028
                 58006 =
2017-12-18 02:54 METAR KPHF 180754Z AUTO 24004KT 10SM OVC075 07/02 A3015 RMK AO2 SLP207 T00720022
                 =
2017-12-18 01:54 METAR KPHF 180654Z AUTO 24005KT 10SM OVC080 08/02 A3016 RMK AO2 SLP212 T00780022
                 =
2017-12-18 00:54 METAR KPHF 180554Z AUTO 24004KT 10SM FEW060 OVC090 07/02 A3016 RMK AO2 SLP210
                 60000 T00720017 10089 20061 56014 =
2017-12-17 23:54 METAR KPHF 180454Z AUTO 25003KT 10SM OVC090 07/02 A3017 RMK AO2 SLP217 T00720017
                 401171033 =
2017-12-17 22:54 METAR KPHF 180354Z 21007KT 10SM BKN060 OVC100 07/02 A3018 RMK AO2 SLP218
                 T00720017 =
2017-12-17 21:54 METAR KPHF 180254Z 21003KT 10SM OVC060 07/02 A3020 RMK AO2 SLP225 60000
                 T00720022 58010 =
2017-12-17 20:54 METAR KPHF 180154Z 23005KT 10SM OVC070 08/02 A3021 RMK AO2 RAB0058E08 SLP230
                 P0000 T00780017 =
2017-12-17 19:54 METAR KPHF 180054Z 10SM OVC090 07/02 A3022 RMK AO2 RAB27E54 SLP234 P0000
                 T00720022 =
2017-12-17 18:54 METAR KPHF 172354Z 24006KT 10SM OVC095 08/00 A3023 RMK AO2 SLP235 T00830000
                 10117 20083 53009 =
2017-12-17 17:54 METAR KPHF 172254Z 20006KT 10SM OVC110 09/00 A3020 RMK AO2 SLP227 T00890000 =

Support USWX by starting your Amazon purchase here.